sensor_id;sensor_type;location;lat;lon;timestamp;P1;durP1;ratioP1;P2;durP2;ratioP2
48847;SDS011;36611;51.638;5.784;2022-12-11T00:01:12;110.43;;;36.03;;
48847;SDS011;36611;51.638;5.784;2022-12-11T00:03:41;85.75;;;30.85;;
48847;SDS011;36611;51.638;5.784;2022-12-11T00:06:09;81.03;;;32.20;;
48847;SDS011;36611;51.638;5.784;2022-12-11T00:08:37;127.35;;;34.95;;
48847;SDS011;36611;51.638;5.784;2022-12-11T00:11:06;95.28;;;32.63;;
48847;SDS011;36611;51.638;5.784;2022-12-11T00:13:34;102.72;;;32.65;;
48847;SDS011;36611;51.638;5.784;2022-12-11T00:16:00;94.10;;;32.08;;
48847;SDS011;36611;51.638;5.784;2022-12-11T00:18:27;129.80;;;36.65;;
48847;SDS011;36611;51.638;5.784;2022-12-11T00:20:54;168.50;;;38.25;;
48847;SDS011;36611;51.638;5.784;2022-12-11T00:23:20;179.02;;;45.28;;
48847;SDS011;36611;51.638;5.784;2022-12-11T00:25:47;181.30;;;41.25;;
48847;SDS011;36611;51.638;5.784;2022-12-11T00:28:16;79.10;;;31.17;;
48847;SDS011;36611;51.638;5.784;2022-12-11T00:30:45;195.88;;;44.13;;
48847;SDS011;36611;51.638;5.784;2022-12-11T00:33:12;83.15;;;30.48;;
48847;SDS011;36611;51.638;5.784;2022-12-11T00:35:40;132.13;;;36.28;;
48847;SDS011;36611;51.638;5.784;2022-12-11T00:38:13;74.50;;;30.42;;
48847;SDS011;36611;51.638;5.784;2022-12-11T00:40:41;77.18;;;30.58;;
48847;SDS011;36611;51.638;5.784;2022-12-11T00:43:08;126.75;;;36.70;;
48847;SDS011;36611;51.638;5.784;2022-12-11T00:45:35;83.28;;;31.20;;
48847;SDS011;36611;51.638;5.784;2022-12-11T00:48:03;85.80;;;30.73;;
48847;SDS011;36611;51.638;5.784;2022-12-11T00:50:30;80.18;;;30.92;;
48847;SDS011;36611;51.638;5.784;2022-12-11T00:52:56;102.80;;;33.08;;
48847;SDS011;36611;51.638;5.784;2022-12-11T00:55:23;135.30;;;38.03;;
48847;SDS011;36611;51.638;5.784;2022-12-11T00:57:50;102.53;;;35.42;;
48847;SDS011;36611;51.638;5.784;2022-12-11T01:00:17;150.18;;;37.10;;
48847;SDS011;36611;51.638;5.784;2022-12-11T01:02:44;123.72;;;38.03;;
48847;SDS011;36611;51.638;5.784;2022-12-11T01:05:11;104.80;;;35.95;;
48847;SDS011;36611;51.638;5.784;2022-12-11T01:07:38;85.13;;;34.05;;
48847;SDS011;36611;51.638;5.784;2022-12-11T01:10:05;86.88;;;32.45;;
48847;SDS011;36611;51.638;5.784;2022-12-11T01:12:53;177.02;;;41.70;;
48847;SDS011;36611;51.638;5.784;2022-12-11T01:15:33;88.35;;;33.40;;
48847;SDS011;36611;51.638;5.784;2022-12-11T01:18:06;85.65;;;31.30;;
48847;SDS011;36611;51.638;5.784;2022-12-11T01:20:34;85.65;;;32.55;;
48847;SDS011;36611;51.638;5.784;2022-12-11T01:23:04;78.90;;;31.70;;
48847;SDS011;36611;51.638;5.784;2022-12-11T01:25:30;82.65;;;31.98;;
48847;SDS011;36611;51.638;5.784;2022-12-11T01:27:58;83.78;;;33.65;;
48847;SDS011;36611;51.638;5.784;2022-12-11T01:30:25;81.70;;;31.23;;
48847;SDS011;36611;51.638;5.784;2022-12-11T01:32:52;130.75;;;38.80;;
48847;SDS011;36611;51.638;5.784;2022-12-11T01:35:18;89.53;;;34.03;;
48847;SDS011;36611;51.638;5.784;2022-12-11T01:37:45;84.13;;;34.92;;
48847;SDS011;36611;51.638;5.784;2022-12-11T01:40:12;82.95;;;33.30;;
48847;SDS011;36611;51.638;5.784;2022-12-11T01:42:40;141.63;;;42.38;;
48847;SDS011;36611;51.638;5.784;2022-12-11T01:48:03;78.85;;;32.35;;
48847;SDS011;36611;51.638;5.784;2022-12-11T01:50:33;85.45;;;33.92;;
48847;SDS011;36611;51.638;5.784;2022-12-11T01:53:05;96.53;;;37.42;;
48847;SDS011;36611;51.638;5.784;2022-12-11T01:55:33;106.63;;;37.50;;
48847;SDS011;36611;51.638;5.784;2022-12-11T01:58:03;89.55;;;35.85;;
48847;SDS011;36611;51.638;5.784;2022-12-11T02:00:30;84.10;;;34.88;;
48847;SDS011;36611;51.638;5.784;2022-12-11T02:02:57;80.93;;;32.95;;
48847;SDS011;36611;51.638;5.784;2022-12-11T02:05:23;81.95;;;34.90;;
48847;SDS011;36611;51.638;5.784;2022-12-11T02:07:51;89.43;;;33.33;;
48847;SDS011;36611;51.638;5.784;2022-12-11T02:10:23;102.90;;;36.45;;
48847;SDS011;36611;51.638;5.784;2022-12-11T02:13:03;91.80;;;33.45;;
48847;SDS011;36611;51.638;5.784;2022-12-11T02:21:12;74.32;;;30.27;;
48847;SDS011;36611;51.638;5.784;2022-12-11T02:26:46;78.18;;;31.48;;
48847;SDS011;36611;51.638;5.784;2022-12-11T02:29:43;83.32;;;32.45;;
48847;SDS011;36611;51.638;5.784;2022-12-11T02:32:18;95.45;;;35.30;;
48847;SDS011;36611;51.638;5.784;2022-12-11T02:37:28;85.75;;;34.38;;
48847;SDS011;36611;51.638;5.784;2022-12-11T02:39:57;86.97;;;34.35;;
48847;SDS011;36611;51.638;5.784;2022-12-11T02:42:24;109.28;;;39.08;;
48847;SDS011;36611;51.638;5.784;2022-12-11T02:44:56;98.40;;;35.65;;
48847;SDS011;36611;51.638;5.784;2022-12-11T02:47:26;83.40;;;35.55;;
48847;SDS011;36611;51.638;5.784;2022-12-11T02:49:55;82.80;;;34.95;;
48847;SDS011;36611;51.638;5.784;2022-12-11T02:52:26;78.88;;;32.67;;
48847;SDS011;36611;51.638;5.784;2022-12-11T02:54:56;87.38;;;33.38;;
48847;SDS011;36611;51.638;5.784;2022-12-11T02:57:30;80.13;;;32.63;;
48847;SDS011;36611;51.638;5.784;2022-12-11T03:00:04;81.45;;;34.30;;
48847;SDS011;36611;51.638;5.784;2022-12-11T03:02:32;75.97;;;32.53;;
48847;SDS011;36611;51.638;5.784;2022-12-11T03:04:58;73.70;;;32.05;;
48847;SDS011;36611;51.638;5.784;2022-12-11T03:07:26;76.57;;;33.15;;
48847;SDS011;36611;51.638;5.784;2022-12-11T03:09:57;70.95;;;32.30;;
48847;SDS011;36611;51.638;5.784;2022-12-11T03:12:28;73.40;;;29.75;;
48847;SDS011;36611;51.638;5.784;2022-12-11T03:14:57;63.65;;;29.90;;
48847;SDS011;36611;51.638;5.784;2022-12-11T03:17:29;68.53;;;30.55;;
48847;SDS011;36611;51.638;5.784;2022-12-11T03:25:13;63.65;;;29.33;;
48847;SDS011;36611;51.638;5.784;2022-12-11T03:30:31;65.65;;;28.83;;
48847;SDS011;36611;51.638;5.784;2022-12-11T03:33:05;70.00;;;30.20;;
48847;SDS011;36611;51.638;5.784;2022-12-11T03:35:40;70.68;;;30.95;;
48847;SDS011;36611;51.638;5.784;2022-12-11T03:38:17;67.28;;;29.38;;
48847;SDS011;36611;51.638;5.784;2022-12-11T03:40:48;63.17;;;28.83;;
48847;SDS011;36611;51.638;5.784;2022-12-11T03:43:20;67.63;;;30.77;;
48847;SDS011;36611;51.638;5.784;2022-12-11T03:45:47;73.90;;;31.33;;
48847;SDS011;36611;51.638;5.784;2022-12-11T03:48:17;61.78;;;28.00;;
48847;SDS011;36611;51.638;5.784;2022-12-11T03:50:45;71.72;;;30.35;;
48847;SDS011;36611;51.638;5.784;2022-12-11T03:53:14;60.13;;;28.92;;
48847;SDS011;36611;51.638;5.784;2022-12-11T03:55:41;63.15;;;28.48;;
48847;SDS011;36611;51.638;5.784;2022-12-11T03:58:08;63.45;;;29.50;;
48847;SDS011;36611;51.638;5.784;2022-12-11T04:00:35;64.43;;;29.45;;
48847;SDS011;36611;51.638;5.784;2022-12-11T04:03:02;63.10;;;28.92;;
48847;SDS011;36611;51.638;5.784;2022-12-11T04:05:47;71.72;;;29.65;;
48847;SDS011;36611;51.638;5.784;2022-12-11T04:08:15;67.25;;;28.45;;
48847;SDS011;36611;51.638;5.784;2022-12-11T04:10:43;53.50;;;27.63;;
48847;SDS011;36611;51.638;5.784;2022-12-11T04:13:10;55.35;;;26.83;;
48847;SDS011;36611;51.638;5.784;2022-12-11T04:15:37;54.67;;;27.73;;
48847;SDS011;36611;51.638;5.784;2022-12-11T04:18:05;56.28;;;26.60;;
48847;SDS011;36611;51.638;5.784;2022-12-11T04:20:52;62.67;;;26.98;;
48847;SDS011;36611;51.638;5.784;2022-12-11T04:23:38;55.38;;;25.10;;
48847;SDS011;36611;51.638;5.784;2022-12-11T04:26:23;60.70;;;26.33;;
48847;SDS011;36611;51.638;5.784;2022-12-11T04:28:50;53.30;;;26.17;;
48847;SDS011;36611;51.638;5.784;2022-12-11T04:31:18;57.42;;;26.33;;
48847;SDS011;36611;51.638;5.784;2022-12-11T04:33:46;51.08;;;25.67;;
48847;SDS011;36611;51.638;5.784;2022-12-11T04:36:13;56.67;;;26.25;;
48847;SDS011;36611;51.638;5.784;2022-12-11T04:38:40;46.40;;;24.90;;
48847;SDS011;36611;51.638;5.784;2022-12-11T04:41:08;52.05;;;25.95;;
48847;SDS011;36611;51.638;5.784;2022-12-11T04:43:37;51.13;;;24.45;;
48847;SDS011;36611;51.638;5.784;2022-12-11T04:46:23;52.78;;;24.77;;
48847;SDS011;36611;51.638;5.784;2022-12-11T04:48:50;48.65;;;23.88;;
48847;SDS011;36611;51.638;5.784;2022-12-11T04:51:23;45.05;;;24.23;;
48847;SDS011;36611;51.638;5.784;2022-12-11T04:53:49;51.17;;;24.05;;
48847;SDS011;36611;51.638;5.784;2022-12-11T04:56:16;48.30;;;23.52;;
48847;SDS011;36611;51.638;5.784;2022-12-11T04:58:43;51.78;;;24.88;;
48847;SDS011;36611;51.638;5.784;2022-12-11T05:01:12;43.10;;;22.08;;
48847;SDS011;36611;51.638;5.784;2022-12-11T05:03:40;46.20;;;23.33;;
48847;SDS011;36611;51.638;5.784;2022-12-11T05:06:07;42.75;;;23.13;;
48847;SDS011;36611;51.638;5.784;2022-12-11T05:08:35;44.13;;;23.58;;
48847;SDS011;36611;51.638;5.784;2022-12-11T05:11:05;46.08;;;22.77;;
48847;SDS011;36611;51.638;5.784;2022-12-11T05:13:33;38.80;;;21.67;;
48847;SDS011;36611;51.638;5.784;2022-12-11T05:16:01;41.03;;;21.25;;
48847;SDS011;36611;51.638;5.784;2022-12-11T05:18:29;37.63;;;20.05;;
48847;SDS011;36611;51.638;5.784;2022-12-11T05:20:56;37.58;;;19.90;;
48847;SDS011;36611;51.638;5.784;2022-12-11T05:23:24;36.38;;;19.83;;
48847;SDS011;36611;51.638;5.784;2022-12-11T05:25:52;34.58;;;19.35;;
48847;SDS011;36611;51.638;5.784;2022-12-11T05:28:29;34.58;;;18.13;;
48847;SDS011;36611;51.638;5.784;2022-12-11T05:30:59;35.72;;;19.08;;
48847;SDS011;36611;51.638;5.784;2022-12-11T05:33:28;40.45;;;19.90;;
48847;SDS011;36611;51.638;5.784;2022-12-11T05:35:55;32.80;;;18.67;;
48847;SDS011;36611;51.638;5.784;2022-12-11T05:38:22;31.08;;;17.90;;
48847;SDS011;36611;51.638;5.784;2022-12-11T05:40:58;32.13;;;17.55;;
48847;SDS011;36611;51.638;5.784;2022-12-11T05:43:30;31.33;;;17.08;;
48847;SDS011;36611;51.638;5.784;2022-12-11T05:46:32;30.48;;;17.17;;
48847;SDS011;36611;51.638;5.784;2022-12-11T05:48:54;32.50;;;17.15;;
48847;SDS011;36611;51.638;5.784;2022-12-11T05:51:22;27.17;;;16.83;;
48847;SDS011;36611;51.638;5.784;2022-12-11T05:53:49;30.45;;;17.20;;
48847;SDS011;36611;51.638;5.784;2022-12-11T05:56:18;31.98;;;17.88;;
48847;SDS011;36611;51.638;5.784;2022-12-11T05:58:47;30.75;;;17.55;;
48847;SDS011;36611;51.638;5.784;2022-12-11T06:01:16;29.27;;;17.45;;
48847;SDS011;36611;51.638;5.784;2022-12-11T06:03:46;29.45;;;17.65;;
48847;SDS011;36611;51.638;5.784;2022-12-11T06:06:12;33.38;;;17.83;;
48847;SDS011;36611;51.638;5.784;2022-12-11T06:08:39;31.63;;;18.60;;
48847;SDS011;36611;51.638;5.784;2022-12-11T06:11:06;38.42;;;19.48;;
48847;SDS011;36611;51.638;5.784;2022-12-11T06:13:33;44.53;;;21.83;;
48847;SDS011;36611;51.638;5.784;2022-12-11T06:16:01;42.78;;;22.42;;
48847;SDS011;36611;51.638;5.784;2022-12-11T06:18:29;39.75;;;21.67;;
48847;SDS011;36611;51.638;5.784;2022-12-11T06:20:56;37.95;;;20.13;;
48847;SDS011;36611;51.638;5.784;2022-12-11T06:23:23;42.67;;;20.77;;
48847;SDS011;36611;51.638;5.784;2022-12-11T06:25:50;36.10;;;19.30;;
48847;SDS011;36611;51.638;5.784;2022-12-11T06:28:16;34.75;;;19.35;;
48847;SDS011;36611;51.638;5.784;2022-12-11T06:30:43;31.10;;;18.80;;
48847;SDS011;36611;51.638;5.784;2022-12-11T06:33:10;27.98;;;16.90;;
48847;SDS011;36611;51.638;5.784;2022-12-11T06:35:37;27.23;;;16.35;;
48847;SDS011;36611;51.638;5.784;2022-12-11T06:38:07;25.38;;;15.68;;
48847;SDS011;36611;51.638;5.784;2022-12-11T06:40:35;26.83;;;16.42;;
48847;SDS011;36611;51.638;5.784;2022-12-11T06:43:02;29.13;;;16.23;;
48847;SDS011;36611;51.638;5.784;2022-12-11T06:45:29;26.38;;;16.23;;
48847;SDS011;36611;51.638;5.784;2022-12-11T06:47:56;24.55;;;16.45;;
48847;SDS011;36611;51.638;5.784;2022-12-11T06:50:23;23.33;;;15.35;;
48847;SDS011;36611;51.638;5.784;2022-12-11T06:52:50;23.38;;;15.70;;
48847;SDS011;36611;51.638;5.784;2022-12-11T06:55:16;23.80;;;15.48;;
48847;SDS011;36611;51.638;5.784;2022-12-11T06:57:43;27.67;;;16.17;;
48847;SDS011;36611;51.638;5.784;2022-12-11T07:00:10;25.65;;;16.00;;
48847;SDS011;36611;51.638;5.784;2022-12-11T07:02:37;22.40;;;14.63;;
48847;SDS011;36611;51.638;5.784;2022-12-11T07:05:03;24.25;;;16.20;;
48847;SDS011;36611;51.638;5.784;2022-12-11T07:07:30;23.63;;;15.48;;
48847;SDS011;36611;51.638;5.784;2022-12-11T07:09:57;23.98;;;15.77;;
48847;SDS011;36611;51.638;5.784;2022-12-11T07:12:33;26.75;;;16.35;;
48847;SDS011;36611;51.638;5.784;2022-12-11T07:14:59;23.92;;;15.45;;
48847;SDS011;36611;51.638;5.784;2022-12-11T07:17:27;26.88;;;16.83;;
48847;SDS011;36611;51.638;5.784;2022-12-11T07:19:54;24.60;;;15.93;;
48847;SDS011;36611;51.638;5.784;2022-12-11T07:22:21;25.42;;;16.85;;
48847;SDS011;36611;51.638;5.784;2022-12-11T07:24:47;23.35;;;15.15;;
48847;SDS011;36611;51.638;5.784;2022-12-11T07:27:14;23.23;;;15.27;;
48847;SDS011;36611;51.638;5.784;2022-12-11T07:29:40;23.75;;;15.63;;
48847;SDS011;36611;51.638;5.784;2022-12-11T07:32:07;27.67;;;16.98;;
48847;SDS011;36611;51.638;5.784;2022-12-11T07:34:34;23.42;;;15.75;;
48847;SDS011;36611;51.638;5.784;2022-12-11T07:37:00;24.23;;;15.35;;
48847;SDS011;36611;51.638;5.784;2022-12-11T07:39:27;25.13;;;16.35;;
48847;SDS011;36611;51.638;5.784;2022-12-11T07:41:53;24.63;;;15.25;;
48847;SDS011;36611;51.638;5.784;2022-12-11T07:44:20;25.67;;;15.90;;
48847;SDS011;36611;51.638;5.784;2022-12-11T07:46:47;24.75;;;16.30;;
48847;SDS011;36611;51.638;5.784;2022-12-11T07:49:13;23.15;;;15.07;;
48847;SDS011;36611;51.638;5.784;2022-12-11T07:51:41;25.67;;;16.00;;
48847;SDS011;36611;51.638;5.784;2022-12-11T07:54:09;27.05;;;15.95;;
48847;SDS011;36611;51.638;5.784;2022-12-11T07:56:42;22.25;;;15.45;;
48847;SDS011;36611;51.638;5.784;2022-12-11T07:59:14;25.33;;;15.38;;
48847;SDS011;36611;51.638;5.784;2022-12-11T08:01:41;22.38;;;15.10;;
48847;SDS011;36611;51.638;5.784;2022-12-11T08:04:09;22.77;;;15.25;;
48847;SDS011;36611;51.638;5.784;2022-12-11T08:06:38;24.38;;;15.00;;
48847;SDS011;36611;51.638;5.784;2022-12-11T08:09:07;23.73;;;15.27;;
48847;SDS011;36611;51.638;5.784;2022-12-11T08:11:35;25.52;;;15.80;;
48847;SDS011;36611;51.638;5.784;2022-12-11T08:14:02;21.35;;;15.18;;
48847;SDS011;36611;51.638;5.784;2022-12-11T08:16:29;22.52;;;15.25;;
48847;SDS011;36611;51.638;5.784;2022-12-11T08:18:56;23.58;;;16.45;;
48847;SDS011;36611;51.638;5.784;2022-12-11T08:21:24;23.30;;;15.57;;
48847;SDS011;36611;51.638;5.784;2022-12-11T08:23:52;23.10;;;14.82;;
48847;SDS011;36611;51.638;5.784;2022-12-11T08:26:20;24.20;;;15.25;;
48847;SDS011;36611;51.638;5.784;2022-12-11T08:28:49;23.08;;;15.13;;
48847;SDS011;36611;51.638;5.784;2022-12-11T08:31:17;24.90;;;16.58;;
48847;SDS011;36611;51.638;5.784;2022-12-11T08:33:44;26.38;;;16.67;;
48847;SDS011;36611;51.638;5.784;2022-12-11T08:36:13;24.23;;;15.88;;
48847;SDS011;36611;51.638;5.784;2022-12-11T08:38:42;25.95;;;16.35;;
48847;SDS011;36611;51.638;5.784;2022-12-11T08:41:09;28.13;;;18.25;;
48847;SDS011;36611;51.638;5.784;2022-12-11T08:43:37;27.73;;;17.55;;
48847;SDS011;36611;51.638;5.784;2022-12-11T08:46:04;27.02;;;17.35;;
48847;SDS011;36611;51.638;5.784;2022-12-11T08:48:32;29.75;;;18.63;;
48847;SDS011;36611;51.638;5.784;2022-12-11T08:51:00;27.48;;;17.88;;
48847;SDS011;36611;51.638;5.784;2022-12-11T08:53:28;30.40;;;18.92;;
48847;SDS011;36611;51.638;5.784;2022-12-11T08:56:02;29.95;;;19.30;;
48847;SDS011;36611;51.638;5.784;2022-12-11T08:58:30;30.35;;;18.63;;
48847;SDS011;36611;51.638;5.784;2022-12-11T09:00:57;30.25;;;19.52;;
48847;SDS011;36611;51.638;5.784;2022-12-11T09:03:24;24.42;;;17.10;;
48847;SDS011;36611;51.638;5.784;2022-12-11T09:05:50;31.52;;;19.17;;
48847;SDS011;36611;51.638;5.784;2022-12-11T09:08:17;31.63;;;19.40;;
48847;SDS011;36611;51.638;5.784;2022-12-11T09:10:44;30.23;;;18.45;;
48847;SDS011;36611;51.638;5.784;2022-12-11T09:13:10;26.90;;;17.70;;
48847;SDS011;36611;51.638;5.784;2022-12-11T09:15:39;25.65;;;17.30;;
48847;SDS011;36611;51.638;5.784;2022-12-11T09:18:06;27.08;;;18.15;;
48847;SDS011;36611;51.638;5.784;2022-12-11T09:20:33;29.42;;;17.63;;
48847;SDS011;36611;51.638;5.784;2022-12-11T09:23:00;26.17;;;16.38;;
48847;SDS011;36611;51.638;5.784;2022-12-11T09:25:26;24.30;;;16.95;;
48847;SDS011;36611;51.638;5.784;2022-12-11T09:27:53;28.27;;;17.75;;
48847;SDS011;36611;51.638;5.784;2022-12-11T09:30:19;25.15;;;16.58;;
48847;SDS011;36611;51.638;5.784;2022-12-11T09:32:46;28.55;;;17.10;;
48847;SDS011;36611;51.638;5.784;2022-12-11T09:35:12;24.65;;;15.43;;
48847;SDS011;36611;51.638;5.784;2022-12-11T09:37:39;30.02;;;16.98;;
48847;SDS011;36611;51.638;5.784;2022-12-11T09:40:05;23.25;;;16.00;;
48847;SDS011;36611;51.638;5.784;2022-12-11T09:45:26;25.63;;;15.27;;
48847;SDS011;36611;51.638;5.784;2022-12-11T09:47:54;26.92;;;15.80;;
48847;SDS011;36611;51.638;5.784;2022-12-11T09:50:25;23.13;;;15.60;;
48847;SDS011;36611;51.638;5.784;2022-12-11T09:55:33;26.10;;;15.65;;
48847;SDS011;36611;51.638;5.784;2022-12-11T10:11:32;25.23;;;15.75;;
48847;SDS011;36611;51.638;5.784;2022-12-11T10:14:12;25.55;;;15.70;;
48847;SDS011;36611;51.638;5.784;2022-12-11T10:16:51;25.77;;;17.25;;
48847;SDS011;36611;51.638;5.784;2022-12-11T10:19:29;26.67;;;16.17;;
48847;SDS011;36611;51.638;5.784;2022-12-11T10:21:57;31.77;;;17.30;;
48847;SDS011;36611;51.638;5.784;2022-12-11T10:24:28;24.00;;;15.18;;
48847;SDS011;36611;51.638;5.784;2022-12-11T10:27:23;24.45;;;15.73;;
48847;SDS011;36611;51.638;5.784;2022-12-11T10:30:01;26.13;;;15.38;;
48847;SDS011;36611;51.638;5.784;2022-12-11T10:35:50;25.52;;;16.08;;
48847;SDS011;36611;51.638;5.784;2022-12-11T10:41:17;25.20;;;16.40;;
48847;SDS011;36611;51.638;5.784;2022-12-11T10:43:50;26.15;;;16.42;;
48847;SDS011;36611;51.638;5.784;2022-12-11T10:46:19;25.77;;;16.55;;
48847;SDS011;36611;51.638;5.784;2022-12-11T10:48:58;24.52;;;15.27;;
48847;SDS011;36611;51.638;5.784;2022-12-11T10:54:15;24.33;;;15.45;;
48847;SDS011;36611;51.638;5.784;2022-12-11T10:56:54;24.40;;;16.17;;
48847;SDS011;36611;51.638;5.784;2022-12-11T11:02:28;26.13;;;15.45;;
48847;SDS011;36611;51.638;5.784;2022-12-11T11:04:58;27.30;;;16.38;;
48847;SDS011;36611;51.638;5.784;2022-12-11T11:07:26;24.55;;;16.20;;
48847;SDS011;36611;51.638;5.784;2022-12-11T11:10:05;27.23;;;17.25;;
48847;SDS011;36611;51.638;5.784;2022-12-11T11:12:41;26.43;;;16.17;;
48847;SDS011;36611;51.638;5.784;2022-12-11T11:15:13;25.35;;;15.93;;
48847;SDS011;36611;51.638;5.784;2022-12-11T11:17:50;26.02;;;16.15;;
48847;SDS011;36611;51.638;5.784;2022-12-11T11:20:28;25.77;;;16.48;;
48847;SDS011;36611;51.638;5.784;2022-12-11T11:22:57;28.33;;;16.42;;
48847;SDS011;36611;51.638;5.784;2022-12-11T11:25:27;28.10;;;16.75;;
48847;SDS011;36611;51.638;5.784;2022-12-11T11:27:57;27.17;;;16.83;;
48847;SDS011;36611;51.638;5.784;2022-12-11T11:30:30;22.55;;;16.08;;
48847;SDS011;36611;51.638;5.784;2022-12-11T11:33:17;23.58;;;16.00;;
48847;SDS011;36611;51.638;5.784;2022-12-11T11:35:53;26.23;;;16.95;;
48847;SDS011;36611;51.638;5.784;2022-12-11T11:41:17;26.65;;;16.70;;
48847;SDS011;36611;51.638;5.784;2022-12-11T11:43:53;28.08;;;18.65;;
48847;SDS011;36611;51.638;5.784;2022-12-11T11:47:25;28.83;;;17.08;;
48847;SDS011;36611;51.638;5.784;2022-12-11T12:00:23;25.23;;;16.52;;
48847;SDS011;36611;51.638;5.784;2022-12-11T12:03:01;27.33;;;15.60;;
48847;SDS011;36611;51.638;5.784;2022-12-11T12:08:21;24.55;;;15.65;;
48847;SDS011;36611;51.638;5.784;2022-12-11T12:11:04;22.40;;;14.27;;
48847;SDS011;36611;51.638;5.784;2022-12-11T12:25:09;24.70;;;14.77;;
48847;SDS011;36611;51.638;5.784;2022-12-11T12:33:43;22.42;;;14.82;;
48847;SDS011;36611;51.638;5.784;2022-12-11T12:36:30;24.40;;;14.93;;
48847;SDS011;36611;51.638;5.784;2022-12-11T12:39:02;22.42;;;15.05;;
48847;SDS011;36611;51.638;5.784;2022-12-11T12:41:46;23.87;;;15.30;;
48847;SDS011;36611;51.638;5.784;2022-12-11T12:44:36;24.20;;;15.02;;
48847;SDS011;36611;51.638;5.784;2022-12-11T12:47:15;22.02;;;14.18;;
48847;SDS011;36611;51.638;5.784;2022-12-11T12:49:52;25.17;;;14.32;;
48847;SDS011;36611;51.638;5.784;2022-12-11T12:54:54;23.83;;;14.70;;
48847;SDS011;36611;51.638;5.784;2022-12-11T12:57:45;20.45;;;13.52;;
48847;SDS011;36611;51.638;5.784;2022-12-11T13:00:34;23.92;;;14.05;;
48847;SDS011;36611;51.638;5.784;2022-12-11T13:03:10;23.00;;;13.32;;
48847;SDS011;36611;51.638;5.784;2022-12-11T13:05:59;21.25;;;14.18;;
48847;SDS011;36611;51.638;5.784;2022-12-11T13:08:39;23.92;;;14.25;;
48847;SDS011;36611;51.638;5.784;2022-12-11T13:11:11;22.85;;;14.18;;
48847;SDS011;36611;51.638;5.784;2022-12-11T13:13:42;23.98;;;14.93;;
48847;SDS011;36611;51.638;5.784;2022-12-11T13:16:24;22.17;;;14.48;;
48847;SDS011;36611;51.638;5.784;2022-12-11T13:18:59;20.15;;;13.85;;
48847;SDS011;36611;51.638;5.784;2022-12-11T13:21:30;23.30;;;15.80;;
48847;SDS011;36611;51.638;5.784;2022-12-11T13:26:47;24.00;;;15.30;;
48847;SDS011;36611;51.638;5.784;2022-12-11T13:29:31;22.02;;;15.77;;
48847;SDS011;36611;51.638;5.784;2022-12-11T13:31:59;24.27;;;15.45;;
48847;SDS011;36611;51.638;5.784;2022-12-11T13:34:53;21.20;;;15.02;;
48847;SDS011;36611;51.638;5.784;2022-12-11T13:37:35;23.20;;;15.05;;
48847;SDS011;36611;51.638;5.784;2022-12-11T13:40:24;22.33;;;15.27;;
48847;SDS011;36611;51.638;5.784;2022-12-11T13:42:54;22.13;;;15.40;;
48847;SDS011;36611;51.638;5.784;2022-12-11T13:48:26;23.67;;;16.15;;
48847;SDS011;36611;51.638;5.784;2022-12-11T13:50:56;24.17;;;15.43;;
48847;SDS011;36611;51.638;5.784;2022-12-11T13:53:24;26.85;;;16.23;;
48847;SDS011;36611;51.638;5.784;2022-12-11T13:58:25;26.20;;;16.45;;
48847;SDS011;36611;51.638;5.784;2022-12-11T14:00:58;27.67;;;16.50;;
48847;SDS011;36611;51.638;5.784;2022-12-11T14:03:31;24.17;;;15.88;;
48847;SDS011;36611;51.638;5.784;2022-12-11T14:05:59;25.27;;;16.10;;
48847;SDS011;36611;51.638;5.784;2022-12-11T14:08:30;22.95;;;15.15;;
48847;SDS011;36611;51.638;5.784;2022-12-11T14:11:00;22.83;;;15.35;;
48847;SDS011;36611;51.638;5.784;2022-12-11T14:13:34;22.83;;;15.32;;
48847;SDS011;36611;51.638;5.784;2022-12-11T14:16:04;24.95;;;16.20;;
48847;SDS011;36611;51.638;5.784;2022-12-11T14:18:32;22.92;;;15.15;;
48847;SDS011;36611;51.638;5.784;2022-12-11T14:21:02;27.23;;;15.80;;
48847;SDS011;36611;51.638;5.784;2022-12-11T14:23:32;21.77;;;14.60;;
48847;SDS011;36611;51.638;5.784;2022-12-11T14:26:20;22.00;;;14.95;;
48847;SDS011;36611;51.638;5.784;2022-12-11T14:28:48;20.52;;;14.88;;
48847;SDS011;36611;51.638;5.784;2022-12-11T14:31:17;22.35;;;14.63;;
48847;SDS011;36611;51.638;5.784;2022-12-11T14:33:50;22.58;;;15.00;;
48847;SDS011;36611;51.638;5.784;2022-12-11T14:36:21;20.77;;;14.43;;
48847;SDS011;36611;51.638;5.784;2022-12-11T14:38:51;20.20;;;13.85;;
48847;SDS011;36611;51.638;5.784;2022-12-11T14:41:23;25.90;;;14.63;;
48847;SDS011;36611;51.638;5.784;2022-12-11T14:43:56;25.90;;;15.23;;
48847;SDS011;36611;51.638;5.784;2022-12-11T14:46:27;25.52;;;15.20;;
48847;SDS011;36611;51.638;5.784;2022-12-11T14:49:23;19.75;;;13.73;;
48847;SDS011;36611;51.638;5.784;2022-12-11T14:52:09;22.27;;;14.10;;
48847;SDS011;36611;51.638;5.784;2022-12-11T14:54:41;23.55;;;14.35;;
48847;SDS011;36611;51.638;5.784;2022-12-11T14:57:23;20.30;;;13.55;;
48847;SDS011;36611;51.638;5.784;2022-12-11T14:59:52;19.67;;;14.00;;
48847;SDS011;36611;51.638;5.784;2022-12-11T15:02:31;23.90;;;13.68;;
48847;SDS011;36611;51.638;5.784;2022-12-11T15:07:54;21.25;;;13.60;;
48847;SDS011;36611;51.638;5.784;2022-12-11T15:13:27;22.02;;;14.15;;
48847;SDS011;36611;51.638;5.784;2022-12-11T15:15:55;19.95;;;13.68;;
48847;SDS011;36611;51.638;5.784;2022-12-11T15:18:26;19.83;;;12.90;;
48847;SDS011;36611;51.638;5.784;2022-12-11T15:20:57;20.40;;;12.93;;
48847;SDS011;36611;51.638;5.784;2022-12-11T15:23:51;19.45;;;13.13;;
48847;SDS011;36611;51.638;5.784;2022-12-11T15:26:20;20.45;;;13.40;;
48847;SDS011;36611;51.638;5.784;2022-12-11T15:29:00;17.63;;;12.80;;
48847;SDS011;36611;51.638;5.784;2022-12-11T15:31:33;19.33;;;13.70;;
48847;SDS011;36611;51.638;5.784;2022-12-11T15:34:00;21.13;;;13.80;;
48847;SDS011;36611;51.638;5.784;2022-12-11T15:36:34;22.67;;;14.25;;
48847;SDS011;36611;51.638;5.784;2022-12-11T15:39:03;19.37;;;13.60;;
48847;SDS011;36611;51.638;5.784;2022-12-11T15:41:35;21.38;;;13.80;;
48847;SDS011;36611;51.638;5.784;2022-12-11T15:44:02;21.58;;;14.02;;
48847;SDS011;36611;51.638;5.784;2022-12-11T15:46:33;19.23;;;13.48;;
48847;SDS011;36611;51.638;5.784;2022-12-11T15:49:04;19.45;;;12.98;;
48847;SDS011;36611;51.638;5.784;2022-12-11T15:51:38;19.77;;;13.77;;
48847;SDS011;36611;51.638;5.784;2022-12-11T15:54:08;18.75;;;13.18;;
48847;SDS011;36611;51.638;5.784;2022-12-11T15:56:35;20.83;;;14.85;;
48847;SDS011;36611;51.638;5.784;2022-12-11T15:59:02;21.48;;;13.50;;
48847;SDS011;36611;51.638;5.784;2022-12-11T16:01:32;21.42;;;14.38;;
48847;SDS011;36611;51.638;5.784;2022-12-11T16:03:58;20.40;;;14.43;;
48847;SDS011;36611;51.638;5.784;2022-12-11T16:06:30;22.08;;;14.02;;
48847;SDS011;36611;51.638;5.784;2022-12-11T16:08:57;22.10;;;14.68;;
48847;SDS011;36611;51.638;5.784;2022-12-11T16:11:23;22.95;;;14.40;;
48847;SDS011;36611;51.638;5.784;2022-12-11T16:13:50;20.80;;;14.13;;
48847;SDS011;36611;51.638;5.784;2022-12-11T16:16:16;23.25;;;15.32;;
48847;SDS011;36611;51.638;5.784;2022-12-11T16:18:44;21.90;;;14.02;;
48847;SDS011;36611;51.638;5.784;2022-12-11T16:21:11;23.92;;;14.85;;
48847;SDS011;36611;51.638;5.784;2022-12-11T16:23:45;24.25;;;14.77;;
48847;SDS011;36611;51.638;5.784;2022-12-11T16:26:11;21.92;;;15.18;;